Time;durP1;ratioP1;P1;durP2;ratioP2;P2;SDS_P1;SDS_P2;PMS_P1;PMS_P2;Temp;Humidity;BMP_temperature;BMP_pressure;BME280_temperature;BME280_humidity;BME280_pressure;Samples;Min_cycle;Max_cycle;Signal;HPM_P1;HPM_P2
2023/09/01 00:00:21;;;;;;;6.00;2.90;;;;;;;18.60;88.31;64929.84;5011259;28;20221;-53
2023/09/01 00:02:46;;;;;;;3.90;2.50;;;;;;;18.45;89.66;64913.84;5010869;28;20214;-52
2023/09/01 00:05:12;;;;;;;8.10;2.75;;;;;;;18.67;88.80;64937.56;5011247;28;20206;-52
2023/09/01 00:07:37;;;;;;;4.15;2.70;;;;;;;18.72;88.23;64945.63;5011061;28;20694;-52
2023/09/01 00:10:04;;;;;;;5.80;2.10;;;;;;;18.61;84.60;64928.94;5011000;28;20198;-53
2023/09/01 00:12:31;;;;;;;6.15;2.60;;;;;;;18.52;85.77;64924.13;5011043;28;20218;-54
2023/09/01 00:14:57;;;;;;;3.97;2.50;;;;;;;18.42;86.17;64915.63;5010807;28;20225;-52
2023/09/01 00:17:22;;;;;;;4.47;2.13;;;;;;;18.60;87.51;64929.84;5010944;28;20238;-52
2023/09/01 00:19:48;;;;;;;3.25;1.90;;;;;;;18.50;83.91;64921.38;5011208;28;20259;-52
2023/09/01 00:22:14;;;;;;;5.93;2.53;;;;;;;18.40;84.18;64910.88;5010916;28;20219;-53
2023/09/01 00:24:39;;;;;;;3.25;2.20;;;;;;;18.33;85.38;64900.59;5010856;28;20190;-53
2023/09/01 00:27:04;;;;;;;3.03;2.45;;;;;;;18.34;84.93;64904.78;5010689;28;20218;-53
2023/09/01 00:29:33;;;;;;;4.43;2.20;;;;;;;18.29;85.56;64896.72;5010980;28;20792;-58
2023/09/01 00:31:59;;;;;;;6.53;2.45;;;;;;;18.27;86.24;64893.97;5011022;28;20237;-52
2023/09/01 00:34:24;;;;;;;3.55;2.78;;;;;;;18.33;85.33;64898.03;5010829;28;20235;-54
2023/09/01 00:36:50;;;;;;;3.22;2.65;;;;;;;18.39;85.40;64907.19;5010700;28;20716;-55
2023/09/01 00:39:15;;;;;;;5.28;2.35;;;;;;;18.50;84.81;64921.91;5009904;28;20229;-53
2023/09/01 00:41:41;;;;;;;5.90;3.05;;;;;;;18.72;83.72;64943.63;5010735;28;20206;-53
2023/09/01 00:44:08;;;;;;;3.83;2.08;;;;;;;18.71;84.24;64941.97;5010328;28;20277;-51
2023/09/01 00:46:34;;;;;;;4.97;2.90;;;;;;;18.59;85.16;64931.84;5009555;28;20231;-52
2023/09/01 00:49:00;;;;;;;4.20;2.13;;;;;;;18.40;85.31;64911.41;5010536;28;20199;-55
2023/09/01 00:51:27;;;;;;;5.43;2.30;;;;;;;18.19;87.55;64885.69;5010869;28;20444;-53
2023/09/01 00:53:53;;;;;;;5.45;2.58;;;;;;;18.23;87.10;64892.09;5010561;28;20194;-52
2023/09/01 00:56:19;;;;;;;3.22;2.40;;;;;;;18.15;87.80;64881.28;5009384;28;20294;-53
2023/09/01 00:58:45;;;;;;;4.00;2.30;;;;;;;18.30;86.35;64900.38;5010328;28;20222;-53
2023/09/01 01:01:10;;;;;;;3.10;2.13;;;;;;;18.31;87.06;64901.50;5008945;28;20218;-52
2023/09/01 01:03:38;;;;;;;5.13;2.47;;;;;;;18.32;86.43;64902.03;5010543;28;20199;-63
2023/09/01 01:06:12;;;;;;;2.97;2.20;;;;;;;18.20;87.06;64886.78;5010473;28;20313;-55
2023/09/01 01:09:10;;;;;;;4.85;2.10;;;;;;;18.08;86.83;64873.03;5010498;28;20285;-57
2023/09/01 01:11:48;;;;;;;5.15;2.47;;;;;;;18.07;87.29;64872.47;5009001;28;20407;-52
2023/09/01 01:14:40;;;;;;;5.18;2.45;;;;;;;18.04;87.07;64871.69;5010224;28;20198;-53
2023/09/01 01:17:08;;;;;;;2.70;2.45;;;;;;;18.05;85.88;64869.72;5006357;28;20242;-52
2023/09/01 01:19:50;;;;;;;4.95;2.25;;;;;;;17.90;87.46;64850.59;5010211;28;20689;-53
2023/09/01 01:22:28;;;;;;;3.20;2.28;;;;;;;17.87;88.49;64850.41;5010293;28;20215;-53
2023/09/01 01:24:53;;;;;;;3.67;2.30;;;;;;;17.83;88.82;64848.56;5010255;28;20195;-56
2023/09/01 01:27:18;;;;;;;5.38;2.17;;;;;;;18.09;87.52;64874.69;5009799;28;20218;-52
2023/09/01 01:29:44;;;;;;;3.10;2.33;;;;;;;18.17;87.13;64883.50;5010028;28;20203;-53
2023/09/01 01:32:10;;;;;;;9.13;2.35;;;;;;;18.17;87.54;64886.03;5009723;28;20219;-52
2023/09/01 01:34:41;;;;;;;2.85;2.03;;;;;;;18.16;87.94;64882.38;5009944;28;20202;-54
2023/09/01 01:37:36;;;;;;;2.95;2.22;;;;;;;18.15;88.04;64881.28;5008499;28;20329;-57
2023/09/01 01:40:06;;;;;;;4.03;2.50;;;;;;;18.08;88.54;64876.13;5010102;28;20213;-53
2023/09/01 01:42:35;;;;;;;2.30;1.88;;;;;;;18.06;88.34;64873.38;5008405;28;20218;-54
2023/09/01 01:45:04;;;;;;;3.45;2.35;;;;;;;18.05;88.49;64870.25;5009804;28;20191;-53
2023/09/01 01:47:31;;;;;;;4.70;2.22;;;;;;;18.06;88.94;64873.38;5008451;28;20791;-54
2023/09/01 01:49:56;;;;;;;3.08;2.33;;;;;;;18.05;89.09;64869.72;5011152;28;20207;-54
2023/09/01 01:52:22;;;;;;;4.55;2.20;;;;;;;18.05;88.84;64867.16;5013188;28;20711;-57
2023/09/01 01:54:48;;;;;;;3.78;2.55;;;;;;;18.12;88.87;64875.41;5013205;28;20673;-53
2023/09/01 01:57:14;;;;;;;2.67;2.28;;;;;;;18.18;88.44;64884.06;5012950;28;20215;-53
2023/09/01 01:59:41;;;;;;;5.25;2.92;;;;;;;18.20;88.33;64889.34;5013049;28;20241;-53
2023/09/01 02:02:07;;;;;;;3.53;2.10;;;;;;;18.46;86.82;64914.41;5012880;28;20317;-53
2023/09/01 02:04:32;;;;;;;4.72;2.58;;;;;;;18.29;86.48;64899.28;5012985;28;20768;-54
2023/09/01 02:06:58;;;;;;;6.43;2.88;;;;;;;18.01;87.57;64862.75;5011529;28;20211;-55
2023/09/01 02:09:26;;;;;;;6.43;2.10;;;;;;;17.73;89.43;64837.53;5013143;28;20289;-53
2023/09/01 02:11:51;;;;;;;5.13;2.58;;;;;;;17.58;90.11;64816.44;5011176;28;20206;-58
2023/09/01 02:14:18;;;;;;;4.63;2.42;;;;;;;17.36;91.89;64794.19;5011605;28;20209;-54
2023/09/01 02:16:44;;;;;;;2.58;2.08;;;;;;;17.21;92.68;64778.19;5012914;28;20265;-54
2023/09/01 02:19:11;;;;;;;6.32;2.80;;;;;;;17.31;93.20;64789.22;5012077;28;20195;-55
2023/09/01 02:21:37;;;;;;;5.63;2.42;;;;;;;17.36;93.06;64794.19;5012682;28;20634;-54
2023/09/01 02:24:05;;;;;;;2.83;1.88;;;;;;;17.48;92.46;64809.94;5012857;28;20198;-54
2023/09/01 02:26:31;;;;;;;4.53;2.33;;;;;;;17.45;92.68;64804.09;5012493;28;20226;-54
2023/09/01 02:28:57;;;;;;;4.80;2.28;;;;;;;17.28;93.52;64788.47;5012727;28;20203;-54
2023/09/01 02:31:24;;;;;;;3.28;2.25;;;;;;;17.41;93.27;64799.69;5012913;28;20568;-54
2023/09/01 02:33:51;;;;;;;6.45;2.20;;;;;;;17.61;92.61;64824.84;5012750;28;20211;-53
2023/09/01 02:36:33;;;;;;;7.28;2.75;;;;;;;17.64;92.35;64825.06;5012706;28;20309;-54
2023/09/01 02:38:59;;;;;;;4.72;2.83;;;;;;;17.67;92.39;64830.91;5012634;28;20218;-63
2023/09/01 02:41:26;;;;;;;6.30;2.92;;;;;;;17.68;92.53;64831.47;5012455;28;20214;-54
2023/09/01 02:43:52;;;;;;;4.22;2.55;;;;;;;17.58;93.11;64819.00;5012562;28;20206;-54
2023/09/01 02:46:18;;;;;;;5.00;3.00;;;;;;;17.46;93.83;64810.28;5012633;28;20222;-55
2023/09/01 02:48:44;;;;;;;3.85;2.60;;;;;;;17.57;93.37;64817.34;5012487;28;20702;-54
2023/09/01 02:51:09;;;;;;;4.95;2.88;;;;;;;17.53;92.93;64815.50;5010842;28;20701;-54
2023/09/01 02:53:36;;;;;;;3.95;2.53;;;;;;;17.60;92.91;64823.75;5012560;28;20206;-58
2023/09/01 02:56:02;;;;;;;5.53;2.70;;;;;;;17.85;92.29;64850.75;5012290;28;20203;-53
2023/09/01 02:58:28;;;;;;;6.40;3.13;;;;;;;17.79;92.85;64844.16;5012429;28;20171;-54
2023/09/01 03:00:54;;;;;;;2.58;2.20;;;;;;;17.70;93.20;64833.66;5011788;28;20207;-54
2023/09/01 03:03:21;;;;;;;2.92;2.30;;;;;;;17.60;93.42;64823.75;5012322;28;20588;-54
2023/09/01 03:05:48;;;;;;;4.78;2.58;;;;;;;17.66;93.78;64827.25;5012041;28;20227;-54
2023/09/01 03:08:14;;;;;;;3.72;2.63;;;;;;;17.74;93.49;64836.09;5012118;28;20225;-54
2023/09/01 03:10:40;;;;;;;4.22;2.65;;;;;;;18.05;91.62;64870.25;5012120;28;20207;-53
2023/09/01 03:13:05;;;;;;;3.38;2.30;;;;;;;17.98;92.12;64861.97;5012069;28;20808;-53
2023/09/01 03:15:31;;;;;;;3.67;2.60;;;;;;;17.67;94.22;64830.91;5010559;28;20265;-53
2023/09/01 03:17:57;;;;;;;6.63;3.03;;;;;;;17.61;94.83;64821.75;5011720;28;20290;-53
2023/09/01 03:20:24;;;;;;;4.93;3.47;;;;;;;17.70;94.40;64833.66;5027071;28;20377;-53
2023/09/01 03:22:50;;;;;;;4.82;3.03;;;;;;;17.80;93.23;64845.25;5011954;28;20227;-53
2023/09/01 03:25:17;;;;;;;4.38;2.97;;;;;;;17.81;93.20;64843.81;5011770;28;20629;-53
2023/09/01 03:27:43;;;;;;;4.78;2.50;;;;;;;17.78;93.04;64840.50;5011705;28;20681;-53
2023/09/01 03:30:10;;;;;;;5.32;2.80;;;;;;;17.66;93.52;64829.25;5011749;28;20207;-54
2023/09/01 03:32:37;;;;;;;9.15;2.85;;;;;;;17.56;93.70;64818.78;5011690;28;20294;-53
2023/09/01 03:35:04;;;;;;;6.57;3.65;;;;;;;17.47;93.92;64806.84;5011773;28;20257;-54
2023/09/01 03:37:30;;;;;;;5.38;3.00;;;;;;;17.44;95.02;64803.00;5011702;28;20210;-54
2023/09/01 03:39:55;;;;;;;5.38;3.22;;;;;;;17.35;94.46;64796.16;5011523;28;20198;-53
2023/09/01 03:42:21;;;;;;;3.65;2.50;;;;;;;17.09;96.46;64764.97;5011459;28;20297;-53
2023/09/01 03:44:47;;;;;;;6.32;3.15;;;;;;;17.15;96.63;64771.59;5011652;28;20203;-53
2023/09/01 03:47:13;;;;;;;7.60;3.03;;;;;;;17.10;97.42;64768.09;5011630;28;20242;-53
2023/09/01 03:49:38;;;;;;;7.88;3.05;;;;;;;17.17;97.60;64776.34;5011441;28;20199;-54
2023/09/01 03:52:04;;;;;;;4.40;3.05;;;;;;;17.27;97.16;64786.81;5011350;28;20726;-54
2023/09/01 03:54:30;;;;;;;6.18;3.00;;;;;;;17.41;96.82;64802.78;5011451;28;20195;-58
2023/09/01 03:56:56;;;;;;;4.32;3.17;;;;;;;17.46;95.91;64807.75;5011355;28;20297;-53
2023/09/01 03:59:22;;;;;;;4.97;3.25;;;;;;;17.41;96.10;64802.25;5011387;28;20268;-53
2023/09/01 04:01:48;;;;;;;6.13;3.25;;;;;;;17.31;96.18;64788.69;5011138;28;20297;-54
2023/09/01 04:04:14;;;;;;;8.77;4.10;;;;;;;17.32;96.18;64789.78;5011323;28;20691;-54
2023/09/01 04:06:40;;;;;;;6.75;3.78;;;;;;;17.32;96.60;64790.31;5011312;28;20222;-53
2023/09/01 04:09:06;;;;;;;5.82;3.67;;;;;;;17.35;96.49;64795.63;5011299;28;20286;-54
2023/09/01 04:11:32;;;;;;;6.78;2.90;;;;;;;17.37;98.84;64798.38;5010986;28;20230;-54
2023/09/01 04:13:59;;;;;;;7.60;3.30;;;;;;;17.66;95.86;64827.25;5010205;28;20275;-53
2023/09/01 04:16:25;;;;;;;5.35;2.95;;;;;;;17.70;100.00;64828.56;5010953;28;20290;-53
2023/09/01 04:18:51;;;;;;;7.22;3.10;;;;;;;17.76;96.40;64838.28;5011206;28;20220;-54
2023/09/01 04:21:17;;;;;;;4.30;2.95;;;;;;;17.98;96.84;64862.53;5010980;28;20206;-53
2023/09/01 04:23:43;;;;;;;8.15;3.03;;;;;;;18.17;95.57;64882.94;5011550;28;20582;-53
2023/09/01 04:26:09;;;;;;;8.60;3.83;;;;;;;18.50;100.00;64916.25;5010757;28;20218;-53
2023/09/01 04:28:35;;;;;;;6.68;3.28;;;;;;;18.82;91.68;64956.66;5010882;28;20544;-53
2023/09/01 04:31:02;;;;;;;6.25;3.30;;;;;;;18.79;89.98;64950.78;5010646;28;20205;-53
2023/09/01 04:33:28;;;;;;;5.47;4.15;;;;;;;18.72;88.24;64945.63;5009518;28;20699;-53
2023/09/01 04:36:05;;;;;;;6.82;4.00;;;;;;;18.44;94.12;64913.28;5010840;28;20213;-54
2023/09/01 04:38:30;;;;;;;4.53;3.20;;;;;;;18.65;89.20;64935.34;5011047;28;20206;-53
2023/09/01 04:40:57;;;;;;;6.88;3.75;;;;;;;18.57;86.88;64926.53;5010884;28;20762;-52
2023/09/01 04:43:26;;;;;;;10.32;3.85;;;;;;;18.29;96.50;64896.16;5010568;28;20198;-53
2023/09/01 04:45:53;;;;;;;10.00;3.50;;;;;;;18.43;98.19;64911.63;5010699;28;20215;-53
2023/09/01 04:48:20;;;;;;;7.97;3.80;;;;;;;18.62;96.80;64935.16;5010611;28;20233;-53
2023/09/01 04:50:46;;;;;;;9.02;3.90;;;;;;;18.72;94.47;64945.63;5010631;28;20210;-55
2023/09/01 04:53:11;;;;;;;8.23;4.97;;;;;;;18.89;100.00;64964.94;5009272;28;20198;-53
2023/09/01 04:55:36;;;;;;;12.20;7.03;;;;;;;19.04;96.38;64978.94;5010371;28;20242;-53
2023/09/01 04:58:04;;;;;;;14.73;7.47;;;;;;;19.23;100.00;65001.91;5010036;28;20685;-53
2023/09/01 05:00:31;;;;;;;6.13;3.13;;;;;;;19.27;90.45;65006.31;5025414;28;20215;-54
2023/09/01 05:02:56;;;;;;;11.13;3.67;;;;;;;19.40;90.78;65018.16;5009550;28;20241;-52
2023/09/01 05:05:22;;;;;;;7.97;4.03;;;;;;;19.59;91.22;65036.56;5009281;28;20206;-58
2023/09/01 05:07:48;;;;;;;4.57;3.40;;;;;;;19.76;90.03;65057.91;5010366;28;20218;-54
2023/09/01 05:10:13;;;;;;;7.32;4.00;;;;;;;19.83;88.27;65063.06;5010503;28;20277;-54
2023/09/01 05:12:39;;;;;;;6.95;3.90;;;;;;;19.79;86.87;65061.22;5010029;28;20289;-53
2023/09/01 05:15:05;;;;;;;8.25;3.88;;;;;;;19.75;86.87;65053.69;5009748;28;20215;-52
2023/09/01 05:17:31;;;;;;;6.50;3.33;;;;;;;19.65;86.96;65048.31;5010062;28;20245;-53
2023/09/01 05:19:57;;;;;;;8.07;4.72;;;;;;;19.90;87.38;65075.91;5009669;28;20685;-53
2023/09/01 05:22:26;;;;;;;8.63;4.88;;;;;;;19.89;86.34;65074.25;5007398;28;20218;-54
2023/09/01 05:24:53;;;;;;;8.98;4.82;;;;;;;19.93;84.69;65079.25;5010751;28;20194;-53
2023/09/01 05:27:19;;;;;;;9.13;4.97;;;;;;;20.22;84.96;65105.06;5013526;28;20225;-58
2023/09/01 05:29:49;;;;;;;9.60;4.72;;;;;;;20.27;82.07;65113.16;5013695;28;20261;-54
2023/09/01 05:32:15;;;;;;;6.50;4.50;;;;;;;20.41;82.86;65126.06;5027147;28;20214;-54
2023/09/01 05:34:41;;;;;;;7.68;4.85;;;;;;;20.52;82.50;65138.22;5011474;28;20233;-54
2023/09/01 05:37:11;;;;;;;7.60;4.70;;;;;;;20.54;81.70;65143.53;5013609;28;20250;-54
2023/09/01 05:39:37;;;;;;;8.00;4.78;;;;;;;20.52;79.55;65145.91;5013658;28;20210;-54
2023/09/01 05:42:03;;;;;;;7.30;4.85;;;;;;;20.53;80.21;65139.88;5013477;28;20225;-53
2023/09/01 05:44:30;;;;;;;11.57;5.72;;;;;;;20.57;78.68;65143.72;5013374;28;20590;-54
2023/09/01 05:46:55;;;;;;;10.48;6.10;;;;;;;20.20;78.88;65105.41;5013484;28;20223;-54
2023/09/01 05:49:23;;;;;;;7.18;5.28;;;;;;;20.35;80.77;65122.53;5013019;28;20281;-53
2023/09/01 05:51:49;;;;;;;9.45;4.80;;;;;;;20.45;82.16;65133.59;5011869;28;20219;-53
2023/09/01 05:54:16;;;;;;;8.38;5.28;;;;;;;20.67;80.61;65157.91;5013213;28;20239;-53
2023/09/01 05:56:41;;;;;;;11.00;5.40;;;;;;;20.50;77.68;65136.00;5013107;28;20249;-54
2023/09/01 05:59:06;;;;;;;10.48;5.80;;;;;;;20.29;78.58;65117.91;5012429;28;20226;-53
2023/09/01 06:01:35;;;;;;;8.88;5.38;;;;;;;20.47;80.36;65133.25;5012483;28;20688;-53
2023/09/01 06:04:04;;;;;;;8.95;5.53;;;;;;;20.73;79.48;65163.97;5012947;28;20194;-53
2023/09/01 06:06:36;;;;;;;12.30;6.38;;;;;;;20.74;77.14;65162.53;5010731;28;20301;-53
2023/09/01 06:09:07;;;;;;;11.60;6.35;;;;;;;20.77;77.04;65168.41;5011250;28;20211;-52
2023/09/01 06:11:34;;;;;;;15.82;8.13;;;;;;;20.58;77.40;65144.84;5013028;28;20306;-54
2023/09/01 06:14:01;;;;;;;14.05;8.50;;;;;;;20.65;78.97;65155.13;5012823;28;20199;-52
2023/09/01 06:16:27;;;;;;;10.45;5.53;;;;;;;20.58;80.29;65147.94;5012228;28;20272;-55
2023/09/01 06:18:53;;;;;;;8.55;5.88;;;;;;;20.67;78.56;65154.78;5012886;28;20199;-52
2023/09/01 06:21:19;;;;;;;8.27;5.70;;;;;;;20.76;77.41;65167.88;5012667;28;20309;-52
2023/09/01 06:23:45;;;;;;;9.82;4.57;;;;;;;20.64;78.07;65151.47;5012853;28;20312;-52
2023/09/01 06:26:11;;;;;;;9.20;4.90;;;;;;;20.57;79.35;65143.72;5011793;28;20650;-53
2023/09/01 06:28:38;;;;;;;7.43;4.97;;;;;;;20.93;78.31;65186.09;5011289;28;20304;-52
2023/09/01 06:31:03;;;;;;;9.23;4.82;;;;;;;21.18;78.62;65213.19;5012705;28;20218;-52
2023/09/01 06:33:29;;;;;;;9.75;4.53;;;;;;;21.33;77.62;65225.22;5012517;28;20199;-52
2023/09/01 06:35:54;;;;;;;4.85;3.70;;;;;;;21.34;75.80;65228.34;5011593;28;20304;-52
2023/09/01 06:38:20;;;;;;;6.65;3.95;;;;;;;21.29;77.53;65225.91;5012477;28;20669;-52
2023/09/01 06:40:45;;;;;;;5.72;3.80;;;;;;;21.65;75.39;65265.72;5027602;28;20211;-52
2023/09/01 06:43:11;;;;;;;7.90;3.90;;;;;;;21.47;74.66;65245.81;5010544;28;20203;-52
2023/09/01 06:45:37;;;;;;;6.90;3.75;;;;;;;21.39;74.90;65236.97;5012382;28;20222;-53
2023/09/01 06:48:03;;;;;;;9.57;4.35;;;;;;;21.56;75.23;65253.22;5011015;28;20313;-52
2023/09/01 06:50:29;;;;;;;6.85;3.85;;;;;;;21.62;74.76;65261.88;5012335;28;20212;-53
2023/09/01 06:52:54;;;;;;;7.80;4.03;;;;;;;21.61;75.24;65258.75;5011924;28;20214;-51
2023/09/01 06:55:21;;;;;;;6.28;3.42;;;;;;;21.30;75.77;65229.03;5011929;28;20214;-52
2023/09/01 06:57:47;;;;;;;5.60;4.13;;;;;;;21.27;76.79;65220.59;5027121;28;20281;-53
2023/09/01 07:00:14;;;;;;;6.35;3.55;;;;;;;21.52;76.59;65250.81;5011873;28;20203;-56
2023/09/01 07:02:40;;;;;;;7.03;3.75;;;;;;;21.34;75.85;65228.88;5011760;28;20211;-52
2023/09/01 07:05:06;;;;;;;5.10;3.70;;;;;;;21.39;75.64;65233.88;5011991;28;20203;-53
2023/09/01 07:07:32;;;;;;;8.68;3.80;;;;;;;21.47;75.25;65240.69;5011912;28;20226;-53
2023/09/01 07:09:58;;;;;;;7.03;3.40;;;;;;;21.58;74.84;65258.00;5011002;28;20199;-52
2023/09/01 07:12:24;;;;;;;6.55;3.90;;;;;;;21.59;76.22;65256.53;5010672;28;20210;-52
2023/09/01 07:14:49;;;;;;;9.27;4.03;;;;;;;21.83;75.19;65285.13;5011786;28;20206;-53
2023/09/01 07:17:21;;;;;;;6.80;3.90;;;;;;;22.10;71.79;65311.88;5051633;22;20224;-59
2023/09/01 07:19:46;;;;;;;8.85;3.72;;;;;;;22.08;74.29;65312.78;5071113;28;20197;-53
2023/09/01 07:22:11;;;;;;;5.15;3.33;;;;;;;22.21;74.29;65326.63;5060086;28;20667;-52
2023/09/01 07:24:37;;;;;;;9.05;4.15;;;;;;;22.46;73.17;65352.28;5049955;28;20210;-54
2023/09/01 07:27:03;;;;;;;9.25;4.30;;;;;;;22.42;70.84;65347.31;5051320;28;20218;-52
2023/09/01 07:29:28;;;;;;;6.18;4.15;;;;;;;22.03;71.91;65304.13;5033023;28;20193;-56
2023/09/01 07:31:54;;;;;;;4.75;3.20;;;;;;;22.00;72.64;65303.41;5051131;28;20228;-52
2023/09/01 07:34:19;;;;;;;7.18;3.53;;;;;;;22.07;70.97;65311.69;5051166;28;20213;-52
2023/09/01 07:36:45;;;;;;;5.88;3.53;;;;;;;22.19;70.45;65324.97;5050542;28;20202;-51
2023/09/01 07:39:11;;;;;;;6.82;3.30;;;;;;;22.38;71.20;65345.44;5016494;28;20244;-52
2023/09/01 07:41:37;;;;;;;6.85;2.97;;;;;;;22.62;70.21;65374.63;5033085;28;20213;-53
2023/09/01 07:44:02;;;;;;;7.40;3.63;;;;;;;22.61;68.14;65370.94;5051239;28;20248;-52
2023/09/01 07:46:33;;;;;;;5.53;3.80;;;;;;;22.44;70.06;65349.53;5050388;28;20771;-58
2023/09/01 07:48:59;;;;;;;6.30;3.58;;;;;;;22.53;70.32;65364.63;5050926;28;20254;-52
2023/09/01 07:51:25;;;;;;;5.85;3.80;;;;;;;22.70;68.98;65377.78;5050831;28;20676;-53
2023/09/01 07:53:50;;;;;;;5.57;3.80;;;;;;;22.63;69.04;65370.56;5051062;28;20223;-52
2023/09/01 07:56:16;;;;;;;5.93;4.07;;;;;;;22.69;67.82;65376.66;5050235;28;20700;-52
2023/09/01 07:58:41;;;;;;;3.83;3.35;;;;;;;22.68;65.42;65376.13;5051004;28;20264;-54
2023/09/01 08:01:06;;;;;;;4.97;4.10;;;;;;;22.66;69.19;65373.91;5050603;28;20217;-52
2023/09/01 08:03:32;;;;;;;7.55;4.03;;;;;;;22.85;67.84;65394.94;5050203;28;20213;-52
2023/09/01 08:05:59;;;;;;;4.50;4.05;;;;;;;23.00;67.47;65414.13;5050154;28;20213;-52
2023/09/01 08:08:24;;;;;;;7.22;3.88;;;;;;;23.00;66.89;65414.13;5032779;28;20304;-52
2023/09/01 08:10:51;;;;;;;4.55;3.42;;;;;;;23.09;66.71;65424.09;5033063;28;20213;-51
2023/09/01 08:13:17;;;;;;;5.53;3.53;;;;;;;23.29;67.47;65443.66;5051120;28;20274;-53
2023/09/01 08:15:42;;;;;;;5.10;4.38;;;;;;;23.16;65.11;65426.69;5050757;28;20634;-53
2023/09/01 08:18:08;;;;;;;5.10;4.60;;;;;;;23.01;63.86;65412.66;5032556;28;20217;-54
2023/09/01 08:20:33;;;;;;;4.72;4.32;;;;;;;23.03;63.13;65414.88;5050545;28;20197;-53
2023/09/01 08:22:59;;;;;;;6.43;4.57;;;;;;;23.06;66.17;65418.19;5049958;28;20228;-52
2023/09/01 08:25:25;;;;;;;6.70;4.78;;;;;;;23.10;63.75;65425.19;5050623;28;20205;-53
2023/09/01 08:27:50;;;;;;;9.98;5.13;;;;;;;23.27;62.38;65444.03;5050264;28;20338;-53
2023/09/01 08:30:16;;;;;;;5.68;4.07;;;;;;;23.18;63.27;65431.50;5050426;28;20213;-53
2023/09/01 08:32:42;;;;;;;4.72;4.22;;;;;;;23.16;64.84;65431.28;5049858;28;20614;-51
2023/09/01 08:35:09;;;;;;;5.28;4.43;;;;;;;23.35;65.41;65447.75;5050119;28;20206;-52
2023/09/01 08:37:34;;;;;;;8.00;4.32;;;;;;;23.54;65.46;65470.84;5050168;28;20770;-57
2023/09/01 08:40:00;;;;;;;6.50;5.10;;;;;;;23.72;63.87;65490.78;5049974;28;20285;-57
2023/09/01 08:42:27;;;;;;;5.95;4.90;;;;;;;23.89;60.89;65509.09;5050119;28;20213;-60
2023/09/01 08:44:53;;;;;;;9.18;5.47;;;;;;;23.74;57.69;65492.44;5050298;28;20201;-55
2023/09/01 08:47:23;;;;;;;5.70;5.10;;;;;;;23.66;61.56;65484.13;5049898;28;20241;-52
2023/09/01 08:49:50;;;;;;;7.93;5.38;;;;;;;23.57;60.22;65473.63;5031084;28;20213;-53
2023/09/01 08:52:18;;;;;;;9.73;6.07;;;;;;;23.63;60.20;65482.84;5050527;28;20221;-52
2023/09/01 08:54:46;;;;;;;7.03;5.55;;;;;;;23.61;59.72;65480.63;5050308;28;20197;-53
2023/09/01 08:57:11;;;;;;;7.10;4.93;;;;;;;23.70;57.74;65488.00;5050173;28;20209;-51
2023/09/01 08:59:39;;;;;;;7.22;5.35;;;;;;;23.90;58.63;65510.75;5049287;28;20590;-52
2023/09/01 09:02:05;;;;;;;7.22;4.82;;;;;;;23.91;57.86;65511.84;5049240;28;20239;-53
2023/09/01 09:04:31;;;;;;;5.30;4.80;;;;;;;24.24;57.58;65547.88;5050740;28;20200;-53
2023/09/01 09:07:18;;;;;;;8.00;4.60;;;;;;;24.50;57.65;65576.19;5049302;28;20761;-52
2023/09/01 09:09:51;;;;;;;5.05;4.63;;;;;;;24.50;56.32;65576.19;5049960;28;20255;-53
2023/09/01 09:12:18;;;;;;;5.57;4.45;;;;;;;24.85;54.96;65615.00;5049783;28;20704;-53
2023/09/01 09:14:50;;;;;;;5.72;3.83;;;;;;;24.55;53.06;65581.72;5049958;28;20251;-52
2023/09/01 09:17:17;;;;;;;5.68;4.05;;;;;;;24.98;55.31;65630.00;5048513;28;20237;-52
2023/09/01 09:19:59;;;;;;;4.25;3.80;;;;;;;25.33;54.27;65668.28;5048685;28;20201;-52
2023/09/01 09:22:25;;;;;;;5.53;4.32;;;;;;;25.67;52.63;65705.50;5048695;28;20399;-52
2023/09/01 09:24:51;;;;;;;5.25;4.10;;;;;;;26.07;51.87;65749.38;5049323;28;20798;-53
2023/09/01 09:27:25;;;;;;;4.53;4.10;;;;;;;25.24;51.92;65657.75;5049821;28;20320;-52
2023/09/01 09:29:51;;;;;;;5.18;4.68;;;;;;;24.99;52.33;65631.09;5049654;28;20201;-54
2023/09/01 09:32:22;;;;;;;6.22;4.40;;;;;;;25.45;51.00;65681.09;5049585;28;20209;-51
2023/09/01 09:35:09;;;;;;;5.15;4.55;;;;;;;25.81;53.46;65721.03;5030933;28;20626;-52
2023/09/01 09:37:36;;;;;;;5.47;4.90;;;;;;;25.80;49.90;65720.47;5050170;28;20210;-53
2023/09/01 09:40:17;;;;;;;5.80;4.65;;;;;;;25.65;50.70;65703.81;5049495;28;20202;-52
2023/09/01 09:42:46;;;;;;;7.00;4.75;;;;;;;26.04;49.38;65746.03;5049441;28;20225;-54
2023/09/01 09:45:32;;;;;;;5.15;4.65;;;;;;;26.23;49.13;65764.56;5049624;28;20255;-53
2023/09/01 09:48:05;;;;;;;5.30;4.35;;;;;;;26.66;46.97;65812.34;5031501;28;20241;-53
2023/09/01 09:50:32;;;;;;;6.20;4.68;;;;;;;26.78;50.43;65827.72;5049785;28;20281;-53
2023/09/01 09:53:02;;;;;;;4.22;3.85;;;;;;;27.23;45.50;65877.75;5048509;28;20217;-55
2023/09/01 09:55:30;;;;;;;4.88;4.47;;;;;;;27.11;47.04;65864.41;5049526;28;20206;-53
2023/09/01 09:58:07;;;;;;;5.43;3.80;;;;;;;27.39;46.61;65893.50;5049218;28;20279;-53
2023/09/01 10:00:42;;;;;;;4.53;4.10;;;;;;;27.69;44.83;65928.91;5048725;28;20208;-52
2023/09/01 10:03:08;;;;;;;4.10;3.80;;;;;;;28.11;44.36;65975.09;5048773;28;20223;-53
2023/09/01 10:05:35;;;;;;;4.68;3.75;;;;;;;28.46;43.72;66014.06;5049243;28;20201;-52
2023/09/01 10:08:06;;;;;;;4.60;4.20;;;;;;;28.23;42.64;65988.44;5049510;28;20355;-53
2023/09/01 10:10:34;;;;;;;5.03;3.70;;;;;;;27.53;44.05;65911.13;5048803;28;20208;-52
2023/09/01 10:13:06;;;;;;;4.95;4.10;;;;;;;27.63;47.40;65921.69;5052113;28;20209;-53
2023/09/01 10:15:32;;;;;;;5.72;3.85;;;;;;;28.26;44.18;65991.78;5052548;28;20201;-54
2023/09/01 10:18:02;;;;;;;4.95;3.50;;;;;;;28.63;43.46;66029.81;5052447;28;20224;-52
2023/09/01 10:20:30;;;;;;;4.60;3.70;;;;;;;28.70;43.01;66038.19;5052519;28;20231;-55
2023/09/01 10:22:55;;;;;;;6.72;4.18;;;;;;;28.23;43.07;65989.00;5052741;28;20221;-52
2023/09/01 10:25:21;;;;;;;4.93;3.72;;;;;;;28.98;42.37;66068.78;5052430;28;20655;-53
2023/09/01 10:28:10;;;;;;;4.25;3.60;;;;;;;29.14;41.37;66083.44;5051815;28;20225;-52
2023/09/01 10:30:46;;;;;;;5.00;3.55;;;;;;;29.13;40.19;66085.47;5052277;28;20251;-52
2023/09/01 10:33:26;;;;;;;6.45;3.40;;;;;;;28.91;40.44;66061.56;5052338;28;20201;-53
2023/09/01 10:35:53;;;;;;;5.65;3.92;;;;;;;28.09;42.14;65970.84;5052003;28;20315;-52
2023/09/01 10:38:35;;;;;;;6.45;4.13;;;;;;;27.57;42.18;65915.00;5051565;28;20205;-54
2023/09/01 10:41:00;;;;;;;5.63;3.90;;;;;;;27.43;42.38;65900.00;5051881;28;20292;-55
2023/09/01 10:43:35;;;;;;;5.05;4.07;;;;;;;27.71;42.13;65931.16;5051993;28;20205;-53
2023/09/01 10:46:16;;;;;;;4.03;3.63;;;;;;;28.10;42.69;65973.97;5051539;28;20220;-55
2023/09/01 10:48:53;;;;;;;4.50;3.92;;;;;;;28.22;41.84;65985.28;5052155;28;20202;-53
2023/09/01 10:51:37;;;;;;;5.95;3.58;;;;;;;28.76;40.72;66044.31;5051908;28;20422;-56
2023/09/01 10:54:23;;;;;;;5.03;3.90;;;;;;;29.31;39.62;66105.53;5051305;28;20197;-55
2023/09/01 10:57:00;;;;;;;4.75;3.95;;;;;;;29.24;39.00;66097.75;5031803;28;20571;-58
2023/09/01 10:59:36;;;;;;;5.57;3.67;;;;;;;28.51;39.98;66019.03;5051911;28;20189;-53
2023/09/01 11:02:22;;;;;;;5.38;3.40;;;;;;;28.73;40.30;66043.53;5051652;28;20209;-52
2023/09/01 11:04:48;;;;;;;5.05;3.92;;;;;;;28.87;39.34;66059.69;5033369;28;20621;-52
2023/09/01 11:07:14;;;;;;;5.43;4.00;;;;;;;28.18;40.29;65980.84;5050967;28;20224;-53
2023/09/01 11:09:42;;;;;;;9.57;3.83;;;;;;;28.62;40.22;66031.31;5051573;28;20209;-53
2023/09/01 11:12:08;;;;;;;4.30;2.90;;;;;;;29.07;38.90;66078.81;5051427;28;20285;-54
2023/09/01 11:14:35;;;;;;;6.82;4.15;;;;;;;29.38;38.56;66115.94;5033103;28;20202;-52
2023/09/01 11:17:03;;;;;;;6.40;3.92;;;;;;;28.46;39.10;66013.50;5051723;28;20252;-52
2023/09/01 11:19:33;;;;;;;4.03;3.30;;;;;;;28.48;39.23;66016.28;5051972;28;20192;-54
2023/09/01 11:21:59;;;;;;;3.60;3.22;;;;;;;29.10;39.95;66082.16;5050159;28;20672;-55
2023/09/01 11:24:25;;;;;;;3.55;3.25;;;;;;;29.43;38.84;66120.97;5051389;28;20193;-55
2023/09/01 11:26:51;;;;;;;4.78;3.58;;;;;;;29.39;39.13;66111.31;5051128;28;20813;-53
2023/09/01 11:29:21;;;;;;;3.85;3.40;;;;;;;29.14;39.05;66086.03;5051355;28;20197;-59
2023/09/01 11:31:47;;;;;;;5.15;3.65;;;;;;;29.10;38.10;66081.59;5050807;28;20597;-53
2023/09/01 11:34:13;;;;;;;4.10;3.63;;;;;;;29.56;38.19;66133.41;5051630;28;20583;-51
2023/09/01 11:36:52;;;;;;;5.85;3.50;;;;;;;30.06;37.78;66188.56;5051141;28;20770;-52